Briefing drone pour L'horme

Rechercher une autre localisation

Conditions de vol :


Nous sommes le : Lundi 06 février 2023
Il est 12:17 UTC (13:17 LT)

Lever de soleil : 06:30 UTC (07:30 LT)
Coucher de soleil : 17:21 UTC (18:21 LT)

Météo

L'essentiel des conditions de vol

VIGILANCE MÉTÉO FRANCE - Loire (42)
Pas de vigilances particulieres
CARTES DES FRONTS
METAR de LFMH
LFMH 061200Z AUTO 34007KT 310V010 9999 OVC029 04/01 Q1032

Date d'émission: 06/02/2023
Heure d'émission: 12:00 UTC
Vent: 340° (variable du 310° au 010°) pour 7 KT (13 km/h)
Visibilité horizontale: > 10 km
Plafond :
- Couvert à 2900ft (884m)
Température: 4 °C
Point de rosée: 1 °C
Humidité: 81%
Pression (QNH): 1032 hPa
TAF de LFMH
LFMH 161901Z 1619/1712 CNL

Conditions prévues :

Heure d'émission : Bulletin éffectué le 16 à 19:00 UTC
Prévision : Valide du 16 a 19:00 UTC au 17 a 12:00 UTC
Nuages : à 0ft (0 m)
WEBCAM POUR L'HORME

Réglementation

Voler en sécurité

CARTES AERONAUTIQUE 1/500.000
CARTE AZBA (Reseau basse altitude)
CARTES VAC (LFMH)
SUP AIP




Chargement des AIP...
NOTAM (L'HORME + Terrain à proximité / FIR )




Chargement des NOTAMS...
CONTACT PREFECTURE 42
Loire (42) : [email protected]


Avertissement : Les données mises à disposition sont indicatives. Oxygène Drone ne pourra être tenu responsable de dégâts causés aux biens et aux personnes.